Terminal Aerodrome Forecast
Issued by NWS Charleston, WV

Current Version | Previous Version | Graphics & Text | Print | Product List | Glossary On
Versions: 1 2 3 4 5 6 7 8 9 10 11 12 13 14 15 16 17 18 19 20 21 22 23
737
FTUS41 KRLX 171829 RRA
TAFHTS
TAF
KHTS 171829Z 1718/1818 00000KT 2SM -RA BR OVC035
     FM172200 17003KT 3SM -RA BR OVC008
     FM180100 23003KT P6SM OVC008
     FM180700 26007KT P6SM BKN020=

USA.gov is the U.S. government's official web portal to all federal, state and local government web resources and services.